Eastmont, South Carolina
Current Conditions -  °F | °C
As of 2:53 AM on Friday 19 Dec 2014 (Local Time) from KCUB Reporting Station
Clear Clear  
Wind Chill: 40°   Ceiling: Unl
Heat Index: 40°   Visibility: 10mi
Dew Point: 36°   Wind: 0mph
Humidity: 86%   Direction: NA
Pressure: 30.1"   Gusts: NA
Location:  33.9488°N, 80.9462°W
Report Text: KCUB 190753Z AUTO 00000KT 10SM CLR 04/02 A3010 RMK AO2 SLP191 T00440022
Loading
Personal Weather Stations






























Interactive Weather Map New forecast layout! Learn more

10-Day Weather Forecast

Advertisements
Track Severe Weather on mobile